Time;durP1;ratioP1;P1;durP2;ratioP2;P2;SDS_P1;SDS_P2;PMS_P1;PMS_P2;Temp;Humidity;BMP_temperature;BMP_pressure;BME280_temperature;BME280_humidity;BME280_pressure;Samples;Min_cycle;Max_cycle;Signal;HPM_P1;HPM_P2
2023/09/08 00:01:35;;;;;;;11.57;6.55;;;;;;;23.10;57.87;101567.50;5114039;28;20032;-65
2023/09/08 00:04:00;;;;;;;13.30;6.40;;;;;;;23.06;58.47;101573.03;5113980;28;20078;-65
2023/09/08 00:06:27;;;;;;;9.93;6.65;;;;;;;23.01;58.46;101562.38;5095673;28;20069;-65
2023/09/08 00:08:52;;;;;;;10.60;6.63;;;;;;;22.97;58.47;101564.28;5096036;28;20024;-65
2023/09/08 00:11:18;;;;;;;9.82;6.63;;;;;;;22.98;58.70;101566.03;5114308;28;20346;-65
2023/09/08 00:13:44;;;;;;;11.85;6.53;;;;;;;22.92;58.46;101568.03;5112861;28;20042;-65
2023/09/08 00:16:10;;;;;;;11.18;6.20;;;;;;;22.77;59.36;101568.44;5113908;28;20036;-65
2023/09/08 00:18:35;;;;;;;10.07;6.90;;;;;;;22.65;60.18;101564.28;5114090;28;20548;-65
2023/09/08 00:21:00;;;;;;;10.70;6.85;;;;;;;22.45;60.80;101572.91;5113765;28;20407;-65
2023/09/08 00:23:28;;;;;;;12.93;7.40;;;;;;;22.20;61.51;101568.16;5113754;28;20039;-65
2023/09/08 00:25:53;;;;;;;11.10;6.90;;;;;;;22.14;61.76;101565.66;5113316;28;20047;-65
2023/09/08 00:28:20;;;;;;;10.88;6.55;;;;;;;22.11;61.66;101567.50;5113844;28;20027;-65
2023/09/08 00:30:45;;;;;;;8.57;6.50;;;;;;;22.05;62.07;101573.91;5113796;28;20099;-65
2023/09/08 00:33:13;;;;;;;9.15;6.50;;;;;;;21.96;62.45;101572.31;5095587;28;20586;-65
2023/09/08 00:35:39;;;;;;;9.20;6.50;;;;;;;21.87;63.04;101568.97;5113452;28;20026;-65
2023/09/08 00:38:04;;;;;;;13.25;6.38;;;;;;;21.88;62.73;101574.31;5113482;28;20015;-65
2023/09/08 00:40:30;;;;;;;10.27;6.70;;;;;;;21.89;62.68;101577.91;5113399;28;20031;-65
2023/09/08 00:42:56;;;;;;;8.55;6.40;;;;;;;21.84;62.92;101579.81;5113671;28;20032;-65
2023/09/08 00:45:22;;;;;;;9.18;6.65;;;;;;;21.88;62.96;101577.00;5095247;28;20092;-66
2023/09/08 00:47:48;;;;;;;9.52;6.70;;;;;;;21.95;62.40;101580.44;5113514;28;20028;-65
2023/09/08 00:50:15;;;;;;;10.90;6.20;;;;;;;21.87;62.75;101571.69;5113235;28;20016;-65
2023/09/08 00:52:40;;;;;;;10.73;7.10;;;;;;;21.92;62.69;101576.00;5113282;28;20533;-65
2023/09/08 00:55:06;;;;;;;9.85;6.97;;;;;;;21.92;62.58;101576.00;5094883;28;20051;-65
2023/09/08 00:57:33;;;;;;;10.00;6.90;;;;;;;21.79;63.03;101561.09;5113215;28;20059;-65
2023/09/08 00:59:58;;;;;;;9.80;6.63;;;;;;;21.71;63.15;101568.47;5113536;28;20063;-65
2023/09/08 01:02:25;;;;;;;15.02;7.18;;;;;;;21.71;63.26;101566.69;5113342;28;20429;-65
2023/09/08 01:04:51;;;;;;;15.95;7.05;;;;;;;21.65;63.71;101571.31;5113495;28;20379;-65
2023/09/08 01:07:19;;;;;;;14.80;7.30;;;;;;;21.70;63.87;101572.97;5113008;28;20024;-65
2023/09/08 01:09:46;;;;;;;10.40;7.20;;;;;;;21.54;64.45;101568.88;5113086;28;20137;-65
2023/09/08 01:12:20;;;;;;;9.98;6.88;;;;;;;21.55;64.07;101564.38;5094865;28;20026;-65
2023/09/08 01:14:45;;;;;;;9.95;7.15;;;;;;;21.52;64.67;101572.53;5113209;28;20028;-65
2023/09/08 01:17:12;;;;;;;10.07;7.15;;;;;;;21.47;64.74;101570.81;5113444;28;20084;-65
2023/09/08 01:19:39;;;;;;;11.02;6.63;;;;;;;21.45;64.86;101571.75;5113363;28;20024;-65
2023/09/08 01:22:28;;;;;;;9.55;6.75;;;;;;;21.48;64.07;101572.59;5094892;28;20084;-64
2023/09/08 01:25:16;;;;;;;11.88;7.68;;;;;;;21.57;64.04;101563.41;5097393;28;20046;-65
2023/09/08 01:27:46;;;;;;;12.60;7.80;;;;;;;21.51;64.42;101568.94;5116969;28;20385;-65
2023/09/08 01:30:13;;;;;;;14.10;7.93;;;;;;;21.59;64.62;101574.16;5116999;28;20469;-65
2023/09/08 01:32:40;;;;;;;10.77;7.20;;;;;;;21.57;64.04;101568.78;5098437;28;20042;-65
2023/09/08 01:35:06;;;;;;;13.65;7.43;;;;;;;21.55;64.14;101567.97;5116859;28;20099;-65
2023/09/08 01:37:32;;;;;;;11.23;7.32;;;;;;;21.54;64.37;101567.97;5116821;28;20035;-65
2023/09/08 01:39:57;;;;;;;11.57;7.43;;;;;;;21.44;64.88;101570.00;5116825;28;20035;-65
2023/09/08 01:42:23;;;;;;;10.30;7.20;;;;;;;21.43;64.74;101579.88;5116800;28;20027;-65
2023/09/08 01:44:48;;;;;;;11.40;7.38;;;;;;;21.37;65.04;101569.28;5116715;28;20034;-65
2023/09/08 01:47:13;;;;;;;10.00;7.50;;;;;;;21.27;65.68;101567.66;5116307;28;20120;-65
2023/09/08 01:49:39;;;;;;;10.07;7.13;;;;;;;21.19;65.47;101575.88;5116618;28;20019;-65
2023/09/08 01:52:05;;;;;;;10.18;7.35;;;;;;;21.14;65.57;101574.22;5116441;28;20401;-65
2023/09/08 01:54:30;;;;;;;11.35;7.18;;;;;;;21.21;65.63;101568.69;5116253;28;20044;-65
2023/09/08 01:56:56;;;;;;;9.68;7.40;;;;;;;21.08;65.71;101572.56;5098249;28;20071;-65
2023/09/08 01:59:21;;;;;;;9.30;6.95;;;;;;;21.02;66.13;101568.16;5116554;28;20432;-64
2023/09/08 02:01:46;;;;;;;14.20;7.47;;;;;;;21.00;66.48;101569.13;5116638;28;20023;-65
2023/09/08 02:04:12;;;;;;;11.57;6.90;;;;;;;20.92;66.15;101558.53;5116230;28;20549;-65
2023/09/08 02:06:37;;;;;;;9.30;7.30;;;;;;;20.86;66.78;101566.75;5116129;28;20024;-65
2023/09/08 02:09:03;;;;;;;9.95;6.32;;;;;;;20.87;67.26;101563.13;5116221;28;20098;-65
2023/09/08 02:11:29;;;;;;;9.90;6.60;;;;;;;20.75;67.26;101564.25;5116135;28;20108;-65
2023/09/08 02:13:54;;;;;;;9.00;6.60;;;;;;;20.70;66.86;101563.47;5115976;28;20019;-65
2023/09/08 02:16:19;;;;;;;9.07;6.20;;;;;;;20.65;67.18;101567.16;5097989;28;20051;-65
2023/09/08 02:18:45;;;;;;;11.35;6.55;;;;;;;20.50;67.66;101566.53;5116081;28;20066;-64
2023/09/08 02:21:11;;;;;;;9.23;6.15;;;;;;;20.50;67.96;101563.84;5115997;28;20031;-65
2023/09/08 02:23:37;;;;;;;11.10;6.70;;;;;;;20.44;68.20;101563.06;5116091;28;20030;-65
2023/09/08 02:26:03;;;;;;;11.40;6.20;;;;;;;20.38;68.04;101561.34;5116259;28;20023;-65
2023/09/08 02:28:29;;;;;;;12.90;6.15;;;;;;;20.38;67.87;101560.47;5115668;28;20413;-65
2023/09/08 02:30:56;;;;;;;8.02;6.07;;;;;;;20.29;68.23;101561.53;5115918;28;20020;-65
2023/09/08 02:33:22;;;;;;;10.15;6.30;;;;;;;20.25;68.51;101559.81;5115931;28;20038;-65
2023/09/08 02:35:47;;;;;;;8.95;6.68;;;;;;;20.32;69.21;101556.09;5114502;28;20408;-65
2023/09/08 02:38:13;;;;;;;9.98;6.55;;;;;;;20.30;69.07;101557.94;5115715;28;20109;-65
2023/09/08 02:40:40;;;;;;;11.48;6.80;;;;;;;20.23;69.00;101545.53;5114882;28;20118;-65
2023/09/08 02:43:05;;;;;;;12.43;6.72;;;;;;;20.19;70.06;101550.06;5115557;28;20426;-65
2023/09/08 02:45:30;;;;;;;11.07;6.70;;;;;;;20.20;70.04;101550.94;5115640;28;20107;-65
2023/09/08 02:47:56;;;;;;;9.88;6.65;;;;;;;20.17;70.14;101551.00;5115560;28;20031;-65
2023/09/08 02:50:22;;;;;;;9.20;6.90;;;;;;;20.10;70.03;101554.72;5097207;28;20371;-65
2023/09/08 02:52:47;;;;;;;11.23;6.78;;;;;;;20.07;70.49;101557.44;5115380;28;20500;-65
2023/09/08 02:55:13;;;;;;;10.07;6.78;;;;;;;20.02;70.60;101560.22;5115182;28;20056;-65
2023/09/08 02:57:41;;;;;;;9.95;7.05;;;;;;;19.95;70.33;101551.38;5114172;28;20408;-65
2023/09/08 03:00:08;;;;;;;13.63;7.05;;;;;;;19.97;70.87;101562.09;5080503;28;20028;-65
2023/09/08 03:02:34;;;;;;;11.90;6.70;;;;;;;19.97;70.64;101551.38;5115355;28;20576;-65
2023/09/08 03:05:00;;;;;;;9.35;6.90;;;;;;;19.97;70.51;101562.09;5115147;28;20051;-66
2023/09/08 03:07:29;;;;;;;10.82;6.93;;;;;;;19.87;70.60;101553.31;5115079;28;20036;-65
2023/09/08 03:09:55;;;;;;;13.38;6.75;;;;;;;19.86;70.63;101558.69;5115165;28;20415;-65
2023/09/08 03:12:20;;;;;;;10.10;6.85;;;;;;;19.79;70.83;101555.25;5096771;28;20081;-65
2023/09/08 03:14:46;;;;;;;9.88;7.25;;;;;;;19.73;70.96;101541.91;5096701;28;20073;-65
2023/09/08 03:17:12;;;;;;;10.32;6.78;;;;;;;19.77;70.89;101554.38;5115029;28;20063;-65
2023/09/08 03:19:38;;;;;;;11.57;6.50;;;;;;;19.70;70.77;101558.97;5114658;28;20445;-64
2023/09/08 03:22:03;;;;;;;10.90;6.78;;;;;;;19.72;71.11;101559.81;5114743;28;20114;-65
2023/09/08 03:24:30;;;;;;;10.48;6.75;;;;;;;19.64;71.21;101556.34;5114802;28;20024;-65
2023/09/08 03:26:57;;;;;;;10.38;6.90;;;;;;;19.64;71.65;101559.03;5114922;28;20027;-65
2023/09/08 03:29:23;;;;;;;12.40;6.95;;;;;;;19.64;71.08;101556.34;5096714;28;20496;-64
2023/09/08 03:31:48;;;;;;;8.73;7.30;;;;;;;19.59;71.14;101555.50;5114518;28;20267;-65
2023/09/08 03:34:14;;;;;;;9.13;7.10;;;;;;;19.51;71.98;101552.94;5114401;28;20047;-64
2023/09/08 03:36:39;;;;;;;10.82;7.20;;;;;;;19.42;73.03;101550.38;5114352;28;20095;-64
2023/09/08 03:39:05;;;;;;;11.20;7.30;;;;;;;19.37;72.92;101554.94;5114385;28;20050;-65
2023/09/08 03:41:31;;;;;;;9.30;7.47;;;;;;;19.26;73.62;101549.72;5114426;28;20019;-64
2023/09/08 03:43:56;;;;;;;13.15;7.22;;;;;;;19.39;72.66;101547.75;5114469;28;20096;-65
2023/09/08 03:46:25;;;;;;;10.45;7.05;;;;;;;19.39;72.73;101553.09;5113176;28;20040;-65
2023/09/08 03:48:50;;;;;;;9.13;7.30;;;;;;;19.45;71.88;101544.13;5079843;28;20474;-65
2023/09/08 03:51:15;;;;;;;8.38;6.82;;;;;;;19.45;71.50;101549.47;5114082;28;20110;-64
2023/09/08 03:53:42;;;;;;;8.90;6.28;;;;;;;19.39;71.41;101549.53;5114287;28;20020;-64
2023/09/08 03:56:07;;;;;;;10.65;7.20;;;;;;;19.38;71.73;101551.34;5113948;28;20086;-65
2023/09/08 03:58:33;;;;;;;9.38;7.32;;;;;;;19.34;71.42;101544.25;5114076;28;20059;-65
2023/09/08 04:00:59;;;;;;;10.13;7.55;;;;;;;19.30;72.15;101547.00;5095913;28;20028;-64
2023/09/08 04:03:26;;;;;;;10.43;7.43;;;;;;;19.31;72.14;101543.41;5113915;28;20020;-65
2023/09/08 04:05:52;;;;;;;10.68;6.53;;;;;;;19.19;72.39;101545.38;5113871;28;20034;-65
2023/09/08 04:08:18;;;;;;;9.57;5.93;;;;;;;19.19;72.59;101536.44;5095683;28;20023;-65
2023/09/08 04:10:43;;;;;;;8.02;6.65;;;;;;;19.18;72.99;101538.22;5095967;28;20473;-65
2023/09/08 04:13:08;;;;;;;10.93;7.63;;;;;;;19.14;73.27;101538.28;5113911;28;20032;-65
2023/09/08 04:15:34;;;;;;;9.93;7.32;;;;;;;19.21;73.14;101535.50;5095650;28;20030;-66
2023/09/08 04:17:59;;;;;;;12.57;7.57;;;;;;;19.17;72.91;101531.09;5114153;28;20023;-65
2023/09/08 04:20:25;;;;;;;13.55;6.90;;;;;;;19.16;72.78;101541.84;5095437;28;20030;-64
2023/09/08 04:22:50;;;;;;;9.20;7.47;;;;;;;19.18;72.77;101535.53;5113742;28;20050;-65
2023/09/08 04:25:16;;;;;;;13.05;7.65;;;;;;;19.20;73.16;101536.41;5113739;28;20058;-65
2023/09/08 04:27:41;;;;;;;11.18;7.78;;;;;;;19.19;73.13;101531.09;5113557;28;20035;-65
2023/09/08 04:30:08;;;;;;;9.82;7.03;;;;;;;19.03;73.20;101525.03;5095491;28;20028;-65
2023/09/08 04:32:34;;;;;;;9.38;6.85;;;;;;;19.03;73.29;101533.09;5112975;28;20110;-64
2023/09/08 04:34:59;;;;;;;8.70;6.57;;;;;;;19.05;72.90;101530.38;5113871;28;20174;-65
2023/09/08 04:37:24;;;;;;;9.50;7.30;;;;;;;19.05;73.49;101531.25;5113220;28;20031;-65
2023/09/08 04:39:50;;;;;;;12.27;7.28;;;;;;;19.12;72.72;101532.06;5113662;28;20030;-65
2023/09/08 04:42:15;;;;;;;11.38;7.63;;;;;;;19.09;72.67;101530.31;5113417;28;20023;-65
2023/09/08 04:44:41;;;;;;;13.52;7.55;;;;;;;19.07;72.87;101540.16;5113757;28;20027;-65
2023/09/08 04:47:07;;;;;;;14.25;8.68;;;;;;;19.02;73.20;101539.34;5113366;28;20491;-65
2023/09/08 04:49:32;;;;;;;12.55;7.85;;;;;;;19.05;73.38;101533.94;5113371;28;20069;-63
2023/09/08 04:51:57;;;;;;;14.75;8.25;;;;;;;18.96;73.39;101534.06;5113188;28;20161;-65
2023/09/08 04:54:26;;;;;;;14.13;8.38;;;;;;;19.00;73.77;101536.66;5113293;28;20056;-64
2023/09/08 04:56:52;;;;;;;13.52;8.32;;;;;;;18.96;73.72;101537.63;5112956;28;20039;-65
2023/09/08 04:59:18;;;;;;;12.75;8.98;;;;;;;19.03;74.56;101533.09;5113433;28;20035;-65
2023/09/08 05:01:44;;;;;;;14.45;8.90;;;;;;;18.95;74.75;101541.22;5098932;28;20026;-64
2023/09/08 05:04:11;;;;;;;11.85;8.20;;;;;;;19.11;74.11;101549.06;5116720;28;20168;-65
2023/09/08 05:06:37;;;;;;;11.52;7.82;;;;;;;19.17;74.83;101541.81;5116613;28;20388;-66
2023/09/08 05:09:08;;;;;;;13.65;8.52;;;;;;;19.26;74.25;101541.69;5117226;28;20024;-65
2023/09/08 05:11:34;;;;;;;14.00;8.98;;;;;;;19.32;74.33;101539.84;5116860;28;20173;-65
2023/09/08 05:13:59;;;;;;;16.50;8.68;;;;;;;19.26;73.42;101533.63;5116922;28;20421;-65
2023/09/08 05:16:37;;;;;;;16.85;9.88;;;;;;;19.18;74.62;101545.38;5116695;28;20499;-65
2023/09/08 05:19:04;;;;;;;15.05;9.98;;;;;;;19.21;74.97;101550.69;5116773;28;20042;-65
2023/09/08 05:21:31;;;;;;;14.48;9.80;;;;;;;19.15;74.74;101540.06;5116685;28;20043;-65
2023/09/08 05:23:57;;;;;;;12.73;10.13;;;;;;;19.21;75.03;101554.25;5116442;28;20020;-65
2023/09/08 05:26:24;;;;;;;11.75;9.85;;;;;;;19.34;74.65;101552.28;5116539;28;20422;-65
2023/09/08 05:28:50;;;;;;;14.00;10.27;;;;;;;19.39;74.36;101547.75;5116655;28;20032;-65
2023/09/08 05:31:15;;;;;;;13.20;10.35;;;;;;;19.51;74.12;101542.22;5098435;28;20081;-65
2023/09/08 05:33:40;;;;;;;14.68;10.43;;;;;;;19.63;73.78;101559.06;5116253;28;20094;-66
2023/09/08 05:36:07;;;;;;;11.02;8.82;;;;;;;19.77;73.52;101549.88;5097827;28;20036;-65
2023/09/08 05:38:32;;;;;;;13.75;10.23;;;;;;;19.86;73.11;101556.00;5097912;28;20422;-64
2023/09/08 05:40:58;;;;;;;15.90;10.30;;;;;;;19.94;73.08;101554.09;5097890;28;20176;-65
2023/09/08 05:43:25;;;;;;;17.40;11.10;;;;;;;19.97;73.18;101556.72;5116177;28;20120;-66
2023/09/08 05:45:50;;;;;;;13.30;8.60;;;;;;;20.22;72.42;101554.50;5116203;28;20028;-64
2023/09/08 05:48:16;;;;;;;14.02;10.00;;;;;;;20.35;71.49;101557.88;5116012;28;20358;-65
2023/09/08 05:50:42;;;;;;;14.60;10.82;;;;;;;20.27;71.36;101564.25;5115919;28;20023;-64
2023/09/08 05:53:08;;;;;;;16.23;10.52;;;;;;;20.38;71.65;101565.84;5116151;28;20024;-64
2023/09/08 05:55:33;;;;;;;17.85;11.20;;;;;;;20.38;71.34;101564.03;5115783;28;20054;-65
2023/09/08 05:58:00;;;;;;;16.10;10.50;;;;;;;20.54;70.71;101570.03;5115773;28;20039;-65
2023/09/08 06:00:26;;;;;;;17.63;11.00;;;;;;;20.66;70.48;101567.13;5115782;28;20044;-65
2023/09/08 06:02:52;;;;;;;15.43;11.00;;;;;;;20.73;70.24;101570.59;5115598;28;20020;-65
2023/09/08 06:05:18;;;;;;;15.23;11.10;;;;;;;20.72;70.32;101558.06;5115816;28;20043;-65
2023/09/08 06:07:43;;;;;;;13.88;10.88;;;;;;;20.85;69.74;101561.38;5115634;28;20067;-65
2023/09/08 06:10:10;;;;;;;14.50;10.80;;;;;;;21.09;69.96;101562.69;5115648;28;20397;-64
2023/09/08 06:12:36;;;;;;;15.82;10.90;;;;;;;21.08;69.09;101569.88;5115830;28;20020;-65
2023/09/08 06:15:06;;;;;;;18.63;11.18;;;;;;;21.20;69.08;101574.09;5115581;28;20392;-65
2023/09/08 06:17:32;;;;;;;15.20;11.35;;;;;;;21.38;69.25;101571.03;5115736;28;20542;-65
2023/09/08 06:19:57;;;;;;;17.48;11.25;;;;;;;21.46;68.45;101576.25;5115472;28;20027;-65
2023/09/08 06:22:22;;;;;;;16.95;10.98;;;;;;;21.51;68.83;101558.19;5115531;28;20027;-65
2023/09/08 06:24:48;;;;;;;15.90;10.63;;;;;;;21.73;67.28;101563.94;5096935;28;20019;-65
2023/09/08 06:27:16;;;;;;;16.92;11.43;;;;;;;21.81;67.65;101563.78;5115481;28;20049;-65
2023/09/08 06:29:43;;;;;;;14.18;11.40;;;;;;;21.90;67.30;101572.50;5115581;28;20047;-65
2023/09/08 06:32:10;;;;;;;15.25;11.48;;;;;;;21.91;67.82;101576.94;5115442;28;20076;-65
2023/09/08 06:34:36;;;;;;;15.93;11.32;;;;;;;21.90;69.19;101569.81;5097338;28;20032;-65
2023/09/08 06:37:02;;;;;;;14.32;10.57;;;;;;;22.03;67.09;101574.88;5115110;28;20477;-66
2023/09/08 06:39:28;;;;;;;17.38;10.90;;;;;;;22.19;67.02;101574.50;5114733;28;20039;-66
2023/09/08 06:41:54;;;;;;;17.67;11.40;;;;;;;22.30;67.36;101582.28;5115059;28;20470;-65
2023/09/08 06:44:23;;;;;;;16.77;12.10;;;;;;;22.44;67.84;101568.44;5096871;28;20028;-66
2023/09/08 06:46:48;;;;;;;16.23;11.82;;;;;;;22.46;67.01;101571.97;5114879;28;20080;-65
2023/09/08 06:49:14;;;;;;;13.90;11.45;;;;;;;22.55;67.34;101579.81;5097242;28;20028;-66
2023/09/08 06:51:40;;;;;;;13.98;11.55;;;;;;;22.61;66.81;101573.34;5114697;28;20489;-66
2023/09/08 06:54:07;;;;;;;15.52;11.73;;;;;;;22.84;67.21;101575.44;5114867;28;20065;-65
2023/09/08 06:56:32;;;;;;;19.10;11.38;;;;;;;22.94;65.96;101585.03;5114767;28;20051;-66
2023/09/08 06:58:58;;;;;;;17.45;11.75;;;;;;;22.95;65.83;101579.63;5114899;28;20122;-66
2023/09/08 07:01:24;;;;;;;14.45;11.23;;;;;;;23.08;65.75;101581.94;5114714;28;20060;-66
2023/09/08 07:03:49;;;;;;;17.45;11.48;;;;;;;23.17;64.86;101584.38;5096719;28;20028;-65
2023/09/08 07:06:16;;;;;;;14.48;10.55;;;;;;;23.44;65.07;101593.44;5114564;28;20538;-66
2023/09/08 07:08:42;;;;;;;16.55;10.80;;;;;;;23.63;63.72;101582.94;5114774;28;20065;-66
2023/09/08 07:11:09;;;;;;;16.35;11.32;;;;;;;23.83;63.96;101585.94;5114654;28;20031;-66
2023/09/08 07:13:34;;;;;;;15.65;10.50;;;;;;;23.98;63.40;101587.22;5114592;28;20062;-65
2023/09/08 07:15:59;;;;;;;17.05;10.90;;;;;;;24.12;62.51;101589.50;5096343;28;20062;-66
2023/09/08 07:18:26;;;;;;;13.40;10.48;;;;;;;24.28;62.53;101579.91;5114578;28;20032;-66
2023/09/08 07:20:52;;;;;;;15.77;11.27;;;;;;;24.41;61.71;101589.41;5114703;28;20028;-65
2023/09/08 07:23:19;;;;;;;17.00;10.55;;;;;;;24.57;61.05;101597.84;5095490;28;20085;-66
2023/09/08 07:25:48;;;;;;;14.18;10.30;;;;;;;24.73;61.87;101595.47;5114577;28;20070;-65
2023/09/08 07:28:14;;;;;;;13.13;10.02;;;;;;;24.99;60.34;101599.91;5114366;28;20051;-67
2023/09/08 07:30:39;;;;;;;16.02;10.10;;;;;;;25.12;60.39;101594.97;5114368;28;20056;-66
2023/09/08 07:33:05;;;;;;;11.80;10.00;;;;;;;25.30;60.86;101596.97;5114096;28;20442;-66
2023/09/08 07:35:31;;;;;;;11.70;10.00;;;;;;;25.10;59.07;101592.34;5114263;28;20089;-66
2023/09/08 07:37:57;;;;;;;14.40;10.82;;;;;;;25.27;60.38;101596.19;5114121;28;20035;-66
2023/09/08 07:40:22;;;;;;;17.35;10.05;;;;;;;25.52;60.64;101593.41;5114491;28;20077;-66
2023/09/08 07:42:47;;;;;;;16.52;9.93;;;;;;;25.93;59.08;101586.34;5114406;28;20385;-66
2023/09/08 07:45:13;;;;;;;14.55;9.88;;;;;;;26.15;58.10;101589.94;5113975;28;20648;-66
2023/09/08 07:47:38;;;;;;;14.65;9.90;;;;;;;26.31;58.47;101586.56;5113966;28;20110;-66
2023/09/08 07:50:21;;;;;;;15.10;8.90;;;;;;;26.43;57.53;101581.50;5113830;28;20023;-66
2023/09/08 07:52:50;;;;;;;10.32;9.15;;;;;;;26.35;57.15;101578.25;5113799;28;20039;-65
2023/09/08 07:55:16;;;;;;;12.60;9.18;;;;;;;26.57;56.08;101585.47;5113417;28;20040;-66
2023/09/08 07:57:43;;;;;;;14.48;9.30;;;;;;;26.71;56.15;101591.16;5113904;28;20039;-67
2023/09/08 08:00:12;;;;;;;15.52;9.13;;;;;;;26.90;55.67;101577.66;5113721;28;20043;-66
2023/09/08 08:02:51;;;;;;;10.85;8.52;;;;;;;26.85;56.40;101585.09;5113675;28;20026;-65
2023/09/08 08:05:17;;;;;;;10.50;8.60;;;;;;;26.92;56.08;101576.59;5113663;28;20099;-66
2023/09/08 08:07:43;;;;;;;12.88;8.73;;;;;;;27.16;55.17;101582.78;5113781;28;20488;-66
2023/09/08 08:10:10;;;;;;;11.63;8.32;;;;;;;27.33;53.98;101584.69;5113752;28;20027;-65
2023/09/08 08:12:36;;;;;;;11.52;7.88;;;;;;;27.49;53.79;101573.97;5113423;28;20047;-65
2023/09/08 08:15:03;;;;;;;14.32;8.07;;;;;;;27.58;54.07;101578.97;5113548;28;20024;-65
2023/09/08 08:17:29;;;;;;;9.88;8.00;;;;;;;27.55;53.16;101579.13;5113235;28;20081;-66
2023/09/08 08:27:33;;;;;;;14.82;8.10;;;;;;;27.93;53.68;101581.81;5113693;27;20093;-65
2023/09/08 08:30:00;;;;;;;13.43;7.72;;;;;;;28.16;52.37;101584.22;5113312;28;20047;-66
2023/09/08 08:32:28;;;;;;;10.13;7.75;;;;;;;28.23;51.29;101579.38;5092674;28;20067;-66
2023/09/08 08:34:53;;;;;;;12.00;8.23;;;;;;;28.28;50.40;101581.84;5112219;28;20027;-65
2023/09/08 08:37:19;;;;;;;11.35;8.07;;;;;;;28.30;50.90;101579.91;5112972;28;20034;-66
2023/09/08 08:39:44;;;;;;;14.77;8.13;;;;;;;28.35;50.66;101589.66;5113101;28;20107;-65
2023/09/08 08:42:10;;;;;;;9.55;7.35;;;;;;;28.47;51.03;101598.09;5113115;28;20016;-66
2023/09/08 08:44:40;;;;;;;11.48;7.82;;;;;;;28.47;50.07;101592.66;5112961;28;20035;-66
2023/09/08 08:47:10;;;;;;;12.98;8.13;;;;;;;28.48;50.04;101592.59;5112945;28;20031;-65
2023/09/08 08:49:36;;;;;;;12.10;7.47;;;;;;;28.64;50.51;101596.25;5094605;28;20085;-66
2023/09/08 08:52:09;;;;;;;10.02;7.75;;;;;;;28.52;50.72;101586.00;5112869;28;20073;-66
2023/09/08 08:54:40;;;;;;;11.18;7.43;;;;;;;28.39;50.20;101584.91;5112519;28;20054;-66
2023/09/08 08:57:13;;;;;;;;;;;;;;;28.75;51.13;101586.66;5113170;28;20044;-66
2023/09/08 08:59:45;;;;;;;12.18;7.30;;;;;;;29.08;49.16;101586.69;5112994;28;19990;-66
2023/09/08 09:02:14;;;;;;;11.57;6.88;;;;;;;29.36;49.30;101580.59;5113329;28;20461;-66
2023/09/08 09:04:40;;;;;;;10.68;6.72;;;;;;;29.68;48.03;101571.50;5112822;28;20028;-65
2023/09/08 09:07:07;;;;;;;12.07;6.80;;;;;;;29.94;47.69;101569.09;5093871;28;20039;-65
2023/09/08 09:09:34;;;;;;;10.98;7.28;;;;;;;30.06;47.70;101579.25;5113125;28;20051;-66
2023/09/08 09:12:02;;;;;;;12.65;7.00;;;;;;;30.09;46.50;101578.22;5112759;28;20031;-66
2023/09/08 09:14:27;;;;;;;9.48;6.55;;;;;;;30.22;47.15;101571.06;5112780;28;20541;-66
2023/09/08 09:16:56;;;;;;;8.45;6.72;;;;;;;30.64;45.20;101572.16;5113012;28;20036;-67
2023/09/08 09:19:33;;;;;;;11.27;7.00;;;;;;;30.70;45.68;101579.94;5112780;28;20527;-62
2023/09/08 09:32:12;;;;;;;10.10;6.60;;;;;;;31.73;42.70;101570.66;5113308;28;20050;-62
2023/09/08 09:34:53;;;;;;;11.55;7.47;;;;;;;31.90;43.77;101574.06;5094277;28;20028;-60
2023/09/08 09:37:20;;;;;;;13.30;6.70;;;;;;;32.06;41.71;101579.38;5112760;28;20417;-62
2023/09/08 09:39:51;;;;;;;10.02;6.55;;;;;;;32.25;41.98;101576.25;5111249;28;20040;-62
2023/09/08 09:42:17;;;;;;;13.80;6.30;;;;;;;32.43;41.72;101578.75;5112424;28;20026;-62
2023/09/08 09:44:43;;;;;;;10.43;6.10;;;;;;;32.47;42.50;101578.41;5095035;28;20466;-61
2023/09/08 09:47:09;;;;;;;12.90;6.55;;;;;;;32.44;42.46;101577.75;5116299;28;20039;-61
2023/09/08 09:49:42;;;;;;;11.63;6.18;;;;;;;32.77;41.05;101577.25;5116668;28;20152;-61
2023/09/08 09:52:08;;;;;;;9.48;6.28;;;;;;;32.74;40.40;101580.19;5116622;28;20027;-62
2023/09/08 09:54:34;;;;;;;9.45;6.45;;;;;;;32.69;41.09;101583.25;5116185;28;20464;-62
2023/09/08 09:57:01;;;;;;;12.18;6.30;;;;;;;32.72;40.90;101574.84;5116142;28;20055;-61
2023/09/08 09:59:26;;;;;;;12.73;6.38;;;;;;;32.82;40.10;101578.66;5116316;28;20476;-62
2023/09/08 10:01:53;;;;;;;12.80;6.20;;;;;;;32.90;39.87;101573.50;5116251;28;20032;-62
2023/09/08 10:04:18;;;;;;;11.85;5.90;;;;;;;32.99;40.30;101580.22;5115957;28;20031;-62
2023/09/08 10:06:45;;;;;;;12.35;5.90;;;;;;;33.07;40.86;101565.97;5116223;28;20036;-61
2023/09/08 10:09:15;;;;;;;9.55;5.80;;;;;;;33.15;39.64;101571.78;5115967;28;20023;-62
2023/09/08 10:11:49;;;;;;;11.65;6.00;;;;;;;33.55;39.94;101577.06;5115922;28;20404;-62
2023/09/08 10:14:15;;;;;;;9.65;6.13;;;;;;;33.82;39.27;101564.03;5115902;28;20054;-62
2023/09/08 10:16:44;;;;;;;10.63;5.90;;;;;;;33.81;39.67;101567.75;5116084;28;20107;-61
2023/09/08 10:19:11;;;;;;;10.02;5.50;;;;;;;33.98;38.78;101568.38;5115935;28;20400;-62
2023/09/08 10:21:41;;;;;;;10.65;5.20;;;;;;;34.14;38.41;101571.69;5115577;28;20028;-61
2023/09/08 10:24:41;;;;;;;9.07;5.80;;;;;;;34.42;40.26;101562.16;5115650;28;20126;-62
2023/09/08 10:27:11;;;;;;;10.48;5.50;;;;;;;33.97;39.01;101567.50;5114849;28;20553;-62
2023/09/08 10:29:39;;;;;;;9.20;5.65;;;;;;;33.71;38.45;101563.97;5115606;28;20024;-61
2023/09/08 10:32:08;;;;;;;8.80;5.32;;;;;;;33.91;38.84;101556.97;5115460;28;20047;-61
2023/09/08 10:34:36;;;;;;;10.38;5.60;;;;;;;33.74;39.24;101565.59;5115248;28;20032;-62
2023/09/08 10:37:02;;;;;;;7.90;5.10;;;;;;;34.33;38.14;101563.78;5115240;28;20106;-63
2023/09/08 10:39:35;;;;;;;9.07;5.43;;;;;;;34.10;38.43;101564.69;5097662;28;20055;-62
2023/09/08 10:42:31;;;;;;;7.65;5.32;;;;;;;34.58;39.20;101567.38;5115131;28;20038;-63
2023/09/08 10:45:03;;;;;;;8.57;5.20;;;;;;;34.66;38.23;101567.63;5093276;28;20035;-62
2023/09/08 10:47:53;;;;;;;12.43;5.65;;;;;;;34.87;37.01;101557.69;5115494;28;20059;-62
2023/09/08 10:50:26;;;;;;;10.02;5.20;;;;;;;35.20;36.40;101555.94;5114655;28;20040;-61
2023/09/08 10:53:25;;;;;;;14.18;5.82;;;;;;;35.15;37.76;101554.59;5097915;28;20027;-61
2023/09/08 10:55:53;;;;;;;10.00;5.30;;;;;;;35.28;37.58;101553.44;5113290;28;20051;-62
2023/09/08 10:58:45;;;;;;;9.55;5.93;;;;;;;35.46;36.33;101559.31;5113996;28;20501;-62
2023/09/08 11:01:17;;;;;;;9.90;5.95;;;;;;;35.55;37.21;101555.81;5115084;28;20048;-61
2023/09/08 11:03:44;;;;;;;7.95;5.80;;;;;;;35.30;36.73;101558.84;5114563;28;20403;-61
2023/09/08 11:06:11;;;;;;;7.57;5.57;;;;;;;35.15;36.63;101558.19;5115098;28;20015;-61
2023/09/08 11:08:43;;;;;;;10.63;5.70;;;;;;;35.01;37.75;101553.84;5114833;28;20080;-63
2023/09/08 11:11:14;;;;;;;9.77;5.93;;;;;;;34.93;36.97;101550.81;5114777;28;20027;-62
2023/09/08 11:13:40;;;;;;;10.20;5.65;;;;;;;35.12;36.97;101548.34;5096834;28;20031;-61
2023/09/08 11:16:06;;;;;;;9.98;5.07;;;;;;;35.29;36.12;101552.47;5115009;28;20381;-63
2023/09/08 11:18:34;;;;;;;10.95;5.38;;;;;;;34.96;37.84;101549.69;5114833;28;20381;-61
2023/09/08 11:21:04;;;;;;;7.15;4.80;;;;;;;35.32;36.22;101552.19;5114441;28;20036;-62
2023/09/08 11:23:30;;;;;;;7.32;5.35;;;;;;;35.37;36.39;101555.47;5114640;28;20362;-62
2023/09/08 11:25:56;;;;;;;10.10;5.65;;;;;;;34.95;37.44;101543.34;5114773;28;20032;-61
2023/09/08 11:28:23;;;;;;;10.50;5.47;;;;;;;34.91;37.40;101551.94;5114493;28;20024;-62
2023/09/08 11:30:49;;;;;;;11.57;5.05;;;;;;;35.25;36.65;101555.59;5114540;28;20023;-62
2023/09/08 11:33:17;;;;;;;13.82;5.93;;;;;;;35.38;38.25;101548.06;5096370;28;20028;-62
2023/09/08 11:35:45;;;;;;;10.57;5.72;;;;;;;35.25;36.78;101552.84;5113795;28;20040;-63